createdAt,value
2019-03-31T00:01:51.336Z,9.21
2019-03-31T00:04:19.332Z,9.26
2019-03-31T00:06:47.342Z,9.25
2019-03-31T00:09:15.344Z,9.24
2019-03-31T00:11:43.393Z,9.29
2019-03-31T00:14:11.662Z,9.17
2019-03-31T00:16:39.596Z,9.06
2019-03-31T00:19:07.587Z,9.09
2019-03-31T00:21:35.547Z,9.06
2019-03-31T00:24:03.638Z,9.01
2019-03-31T00:26:31.575Z,9.11
2019-03-31T00:28:59.522Z,9.25
2019-03-31T00:31:27.457Z,9.06
2019-03-31T00:33:55.442Z,8.94
2019-03-31T00:36:23.363Z,8.86
2019-03-31T00:38:51.372Z,8.82
2019-03-31T00:41:19.302Z,8.88
2019-03-31T00:43:47.318Z,8.85
2019-03-31T00:46:15.911Z,8.99
2019-03-31T00:48:43.935Z,8.95
2019-03-31T00:51:11.851Z,8.88
2019-03-31T00:53:39.867Z,8.74
2019-03-31T00:56:07.801Z,8.70
2019-03-31T00:58:35.827Z,8.63
2019-03-31T01:01:35.413Z,8.51
2019-03-31T01:03:51.586Z,8.61
2019-03-31T01:06:21.427Z,8.57
2019-03-31T01:08:49.429Z,8.69
2019-03-31T01:11:21.807Z,8.55
2019-03-31T01:13:49.808Z,8.50
2019-03-31T01:16:18.341Z,8.52
2019-03-31T01:18:46.307Z,8.59
2019-03-31T01:21:14.447Z,8.63
2019-03-31T01:23:42.527Z,8.66
2019-03-31T01:26:10.777Z,8.52
2019-03-31T01:28:38.807Z,8.49
2019-03-31T01:31:06.862Z,8.47
2019-03-31T01:33:35.260Z,8.47
2019-03-31T01:36:03.413Z,8.49
2019-03-31T01:38:31.497Z,8.48
2019-03-31T01:40:59.452Z,8.53
2019-03-31T01:43:29.699Z,8.56
2019-03-31T01:45:58.420Z,8.62
2019-03-31T01:48:26.406Z,8.64
2019-03-31T01:50:54.332Z,8.57
2019-03-31T01:53:22.307Z,8.43
2019-03-31T01:55:50.235Z,8.39
2019-03-31T01:58:18.273Z,8.36
2019-03-31T02:00:51.322Z,8.39
2019-03-31T02:03:19.315Z,8.35
2019-03-31T02:05:47.232Z,8.33
2019-03-31T02:08:15.270Z,8.29
2019-03-31T02:10:43.243Z,8.18
2019-03-31T02:13:11.186Z,8.22
2019-03-31T02:15:39.207Z,8.23
2019-03-31T02:18:07.247Z,8.31
2019-03-31T02:20:35.221Z,8.32
2019-03-31T02:23:03.256Z,8.40
2019-03-31T02:25:31.287Z,8.39
2019-03-31T02:27:59.231Z,8.43
2019-03-31T02:30:27.564Z,8.43
2019-03-31T02:32:55.505Z,8.42
2019-03-31T02:35:23.487Z,8.52
2019-03-31T02:37:51.416Z,8.70
2019-03-31T02:40:19.392Z,8.65
2019-03-31T02:42:47.326Z,8.58
2019-03-31T02:45:15.320Z,8.54
2019-03-31T02:47:43.233Z,8.52
2019-03-31T02:50:17.300Z,8.36
2019-03-31T02:52:45.238Z,8.43
2019-03-31T02:55:13.220Z,8.41
2019-03-31T02:57:41.387Z,8.36
2019-03-31T03:00:09.463Z,8.41
2019-03-31T03:02:42.214Z,8.37
2019-03-31T03:05:19.588Z,8.29
2019-03-31T03:07:39.951Z,8.33
2019-03-31T03:10:08.784Z,8.38
2019-03-31T03:12:39.506Z,8.40
2019-03-31T03:15:07.604Z,8.48
2019-03-31T03:17:35.548Z,8.48
2019-03-31T03:20:03.834Z,8.47
2019-03-31T03:22:31.742Z,8.48
2019-03-31T03:24:59.733Z,8.47
2019-03-31T03:27:27.677Z,8.45
2019-03-31T03:29:56.150Z,8.34
2019-03-31T03:32:24.138Z,8.31
2019-03-31T03:34:52.222Z,8.30
2019-03-31T03:37:20.174Z,8.27
2019-03-31T03:39:48.154Z,8.20
2019-03-31T03:42:16.104Z,8.13
2019-03-31T03:44:44.035Z,8.15
2019-03-31T03:47:12.029Z,8.14
2019-03-31T03:49:40.046Z,8.17
2019-03-31T03:52:08.162Z,8.17
2019-03-31T03:54:36.178Z,8.15
2019-03-31T03:57:05.199Z,8.11
2019-03-31T03:59:33.132Z,8.15
2019-03-31T04:02:01.123Z,8.10
2019-03-31T04:04:29.069Z,8.07
2019-03-31T04:06:57.089Z,8.10
2019-03-31T04:09:25.108Z,8.03
2019-03-31T04:11:53.083Z,8.06
2019-03-31T04:14:21.019Z,8.08
2019-03-31T04:16:48.985Z,8.10
2019-03-31T04:19:16.928Z,8.11
2019-03-31T04:21:44.910Z,8.10
2019-03-31T04:24:12.817Z,8.13
2019-03-31T04:26:40.782Z,8.17
2019-03-31T04:29:08.725Z,8.12
2019-03-31T04:31:36.702Z,8.14
2019-03-31T04:34:04.651Z,8.05
2019-03-31T04:36:32.718Z,8.06
2019-03-31T04:39:00.947Z,7.95
2019-03-31T04:41:29.157Z,7.98
2019-03-31T04:43:57.087Z,7.89
2019-03-31T04:46:25.067Z,7.82
2019-03-31T04:48:53.006Z,7.83
2019-03-31T04:51:20.971Z,7.82
2019-03-31T04:53:48.962Z,7.71
2019-03-31T04:56:16.962Z,7.69
2019-03-31T04:58:45.007Z,7.49
2019-03-31T05:01:12.966Z,7.43
2019-03-31T05:03:40.917Z,7.45
2019-03-31T05:06:08.922Z,7.22
2019-03-31T05:08:36.930Z,7.20
2019-03-31T05:11:04.997Z,7.18
2019-03-31T05:13:32.962Z,6.95
2019-03-31T05:16:00.977Z,6.95
2019-03-31T05:18:29.051Z,6.91
2019-03-31T05:20:57.037Z,6.70
2019-03-31T05:23:24.973Z,6.76
2019-03-31T05:25:52.957Z,6.56
2019-03-31T05:28:20.903Z,6.58
2019-03-31T05:30:48.947Z,6.37
2019-03-31T05:33:16.964Z,6.22
2019-03-31T05:35:44.931Z,6.19
2019-03-31T05:38:12.952Z,5.95
2019-03-31T05:40:40.978Z,5.66
2019-03-31T05:43:08.974Z,5.82
2019-03-31T05:45:36.951Z,5.83
2019-03-31T05:48:04.977Z,5.83
2019-03-31T05:50:32.892Z,5.82
2019-03-31T05:53:00.897Z,6.02
2019-03-31T05:55:28.826Z,6.11
2019-03-31T05:57:57.617Z,6.03
2019-03-31T06:00:41.883Z,6.12
2019-03-31T06:03:09.903Z,6.20
2019-03-31T06:05:37.851Z,6.33
2019-03-31T06:08:05.914Z,6.24
2019-03-31T06:10:33.826Z,6.25
2019-03-31T06:13:01.879Z,6.33
2019-03-31T06:15:30.448Z,6.36
2019-03-31T06:17:58.427Z,6.45
2019-03-31T06:20:26.386Z,6.44
2019-03-31T06:22:54.453Z,6.36
2019-03-31T06:25:22.534Z,6.39
2019-03-31T06:27:50.515Z,6.40
2019-03-31T06:30:18.619Z,6.38
2019-03-31T06:32:46.667Z,6.44
2019-03-31T06:35:14.637Z,6.51
2019-03-31T06:37:42.607Z,6.61
2019-03-31T06:40:10.652Z,6.56
2019-03-31T06:42:38.656Z,6.43
2019-03-31T06:45:07.188Z,6.53
2019-03-31T06:47:35.187Z,6.70
2019-03-31T06:50:03.903Z,6.80
2019-03-31T06:52:31.971Z,6.66
2019-03-31T06:54:59.887Z,6.77
2019-03-31T06:57:27.933Z,6.82
2019-03-31T06:59:55.902Z,6.91
2019-03-31T07:02:23.931Z,7.00
2019-03-31T07:05:00.804Z,7.03
2019-03-31T07:07:23.859Z,6.96
2019-03-31T07:09:51.572Z,7.12
2019-03-31T07:12:19.572Z,6.98
2019-03-31T07:14:47.572Z,7.25
2019-03-31T07:17:15.636Z,7.16
2019-03-31T07:19:43.686Z,7.29
2019-03-31T07:22:11.722Z,7.11
2019-03-31T07:24:39.695Z,7.27
2019-03-31T07:27:07.759Z,7.27
2019-03-31T07:29:35.692Z,7.43
2019-03-31T07:32:04.111Z,7.65
2019-03-31T07:34:32.156Z,7.68
2019-03-31T07:37:00.132Z,7.68
2019-03-31T07:39:29.572Z,7.54
2019-03-31T07:41:59.762Z,7.33
2019-03-31T07:44:28.171Z,7.55
2019-03-31T07:46:58.331Z,7.70
2019-03-31T07:49:26.368Z,7.75
2019-03-31T07:51:54.293Z,7.76
2019-03-31T07:54:22.902Z,7.83
2019-03-31T07:56:51.725Z,7.79
2019-03-31T07:59:19.761Z,7.91
2019-03-31T08:01:48.381Z,7.94
2019-03-31T08:04:16.387Z,8.02
2019-03-31T08:06:44.357Z,8.41
2019-03-31T08:09:12.418Z,8.85
2019-03-31T08:11:40.366Z,8.95
2019-03-31T08:14:08.487Z,9.15
2019-03-31T08:16:36.462Z,9.60
2019-03-31T08:19:04.436Z,9.40
2019-03-31T08:21:32.392Z,9.03
2019-03-31T08:24:00.477Z,9.30
2019-03-31T08:26:28.840Z,9.39
2019-03-31T08:28:58.597Z,9.70
2019-03-31T08:31:26.727Z,9.65
2019-03-31T08:33:54.717Z,9.34
2019-03-31T08:36:22.667Z,9.36
2019-03-31T08:38:50.687Z,9.15
2019-03-31T08:41:18.769Z,9.20
2019-03-31T08:43:47.167Z,9.30
2019-03-31T08:46:15.601Z,9.28
2019-03-31T08:48:44.245Z,9.33
2019-03-31T08:51:12.257Z,9.24
2019-03-31T08:53:42.481Z,9.36
2019-03-31T08:56:10.432Z,9.32
2019-03-31T08:58:39.108Z,9.32
2019-03-31T09:01:10.826Z,9.23
2019-03-31T09:03:38.857Z,9.38
2019-03-31T09:06:06.793Z,9.15
2019-03-31T09:08:34.786Z,9.22
2019-03-31T09:11:04.354Z,9.31
2019-03-31T09:13:32.317Z,9.51
2019-03-31T09:16:00.429Z,9.70
2019-03-31T09:18:28.438Z,9.58
2019-03-31T09:20:56.342Z,10.06
2019-03-31T09:23:24.355Z,9.66
2019-03-31T09:25:53.293Z,9.28
2019-03-31T09:28:21.267Z,9.13
2019-03-31T09:30:49.392Z,9.34
2019-03-31T09:33:17.362Z,9.26
2019-03-31T09:35:45.327Z,9.28
2019-03-31T09:38:13.328Z,9.47
2019-03-31T09:40:41.349Z,9.50
2019-03-31T09:43:09.455Z,9.33
2019-03-31T09:45:37.535Z,9.24
2019-03-31T09:48:05.492Z,9.31
2019-03-31T09:50:33.512Z,8.99
2019-03-31T09:53:01.552Z,9.04
2019-03-31T09:55:29.547Z,9.09
2019-03-31T09:57:57.622Z,9.16
2019-03-31T10:00:45.764Z,9.41
2019-03-31T10:03:13.853Z,9.52
2019-03-31T10:05:43.168Z,9.46
2019-03-31T10:08:11.197Z,9.11
2019-03-31T10:10:39.462Z,9.09
2019-03-31T10:13:07.607Z,9.20
2019-03-31T10:15:35.769Z,9.15
2019-03-31T10:18:03.812Z,9.44
2019-03-31T10:20:32.192Z,9.24
2019-03-31T10:23:00.153Z,9.28
2019-03-31T10:25:28.179Z,9.43
2019-03-31T10:27:56.217Z,9.41
2019-03-31T10:30:42.525Z,9.31
2019-03-31T10:33:10.473Z,9.19
2019-03-31T10:35:38.577Z,9.16
2019-03-31T10:38:08.217Z,9.16
2019-03-31T10:40:36.241Z,9.40
2019-03-31T10:43:04.337Z,9.22
2019-03-31T10:45:32.358Z,9.11
2019-03-31T10:48:00.335Z,9.20
2019-03-31T10:50:28.321Z,9.24
2019-03-31T10:52:56.664Z,9.23
2019-03-31T10:55:27.062Z,9.30
2019-03-31T10:57:55.262Z,9.32
2019-03-31T11:00:34.804Z,9.53
2019-03-31T11:03:03.666Z,9.60
2019-03-31T11:05:31.812Z,9.78
2019-03-31T11:07:59.871Z,9.96
2019-03-31T11:10:28.655Z,10.13
2019-03-31T11:12:56.632Z,9.83
2019-03-31T11:15:25.221Z,9.92
2019-03-31T11:17:53.446Z,9.73
2019-03-31T11:20:21.492Z,9.76
2019-03-31T11:22:56.907Z,10.14
2019-03-31T11:25:29.125Z,10.29
2019-03-31T11:27:54.896Z,10.50
2019-03-31T11:30:22.986Z,10.66
2019-03-31T11:32:50.928Z,11.02
2019-03-31T11:35:18.967Z,11.73
2019-03-31T11:37:46.974Z,11.23
2019-03-31T11:40:15.285Z,10.93
2019-03-31T11:42:43.684Z,11.13
2019-03-31T11:45:12.118Z,11.20
2019-03-31T11:47:40.217Z,11.47
2019-03-31T11:50:11.443Z,11.63
2019-03-31T11:52:40.021Z,11.74
2019-03-31T11:55:08.290Z,10.57
2019-03-31T11:57:37.376Z,10.02
2019-03-31T12:00:08.587Z,10.36
2019-03-31T12:02:36.708Z,10.56
2019-03-31T12:05:06.329Z,10.34
2019-03-31T12:07:46.003Z,10.41
2019-03-31T12:10:05.466Z,10.57
2019-03-31T12:12:33.867Z,10.15
2019-03-31T12:15:01.973Z,10.11
2019-03-31T12:17:30.066Z,10.26
2019-03-31T12:19:58.099Z,10.36
2019-03-31T12:22:26.217Z,10.88
2019-03-31T12:24:54.251Z,11.14
2019-03-31T12:27:22.371Z,10.96
2019-03-31T12:29:50.444Z,11.21
2019-03-31T12:32:18.731Z,11.15
2019-03-31T12:34:46.787Z,11.20
2019-03-31T12:37:14.861Z,11.28
2019-03-31T12:39:42.987Z,11.73
2019-03-31T12:42:11.071Z,11.67
2019-03-31T12:44:39.437Z,11.48
2019-03-31T12:47:07.611Z,11.11
2019-03-31T12:49:35.850Z,10.87
2019-03-31T12:52:03.950Z,11.16
2019-03-31T12:54:32.096Z,11.11
2019-03-31T12:57:00.430Z,11.26
2019-03-31T12:59:28.542Z,11.88
2019-03-31T13:01:56.732Z,11.89
2019-03-31T13:04:25.058Z,11.99
2019-03-31T13:06:53.406Z,11.12
2019-03-31T13:09:21.591Z,11.16
2019-03-31T13:11:50.537Z,11.39
2019-03-31T13:14:18.951Z,11.89
2019-03-31T13:16:49.546Z,11.71
2019-03-31T13:19:17.697Z,11.40
2019-03-31T13:21:45.849Z,10.96
2019-03-31T13:24:14.035Z,10.99
2019-03-31T13:26:42.159Z,11.10
2019-03-31T13:29:10.404Z,11.28
2019-03-31T13:31:38.702Z,11.26
2019-03-31T13:34:09.042Z,11.20
2019-03-31T13:36:37.093Z,11.74
2019-03-31T13:39:07.391Z,11.49
2019-03-31T13:41:35.492Z,11.39
2019-03-31T13:44:03.772Z,11.71
2019-03-31T13:46:32.006Z,12.06
2019-03-31T13:49:00.241Z,12.38
2019-03-31T13:51:28.282Z,12.30
2019-03-31T13:53:56.382Z,12.05
2019-03-31T13:56:24.422Z,12.14
2019-03-31T13:58:52.856Z,11.44
2019-03-31T14:01:21.118Z,11.61
2019-03-31T14:03:49.357Z,11.70
2019-03-31T14:06:17.752Z,11.97
2019-03-31T14:08:45.959Z,11.21
2019-03-31T14:11:14.417Z,10.98
2019-03-31T14:13:42.752Z,11.34
2019-03-31T14:16:10.988Z,11.47
2019-03-31T14:18:39.307Z,11.76
2019-03-31T14:21:07.667Z,11.90
2019-03-31T14:23:36.152Z,12.21
2019-03-31T14:26:04.287Z,11.85
2019-03-31T14:28:32.500Z,11.97
2019-03-31T14:31:00.914Z,11.29
2019-03-31T14:33:29.186Z,11.29
2019-03-31T14:35:57.670Z,11.43
2019-03-31T14:38:39.589Z,11.30
2019-03-31T14:40:56.442Z,11.29
2019-03-31T14:43:27.835Z,10.94
2019-03-31T14:45:55.032Z,10.85
2019-03-31T14:48:23.346Z,11.00
2019-03-31T14:50:51.502Z,11.08
2019-03-31T14:53:19.883Z,10.87
2019-03-31T14:55:48.293Z,11.01
2019-03-31T14:58:16.717Z,10.95
2019-03-31T15:00:44.993Z,10.70
2019-03-31T15:03:13.463Z,10.85
2019-03-31T15:05:41.951Z,10.92
2019-03-31T15:08:10.422Z,11.14
2019-03-31T15:10:38.847Z,11.09
2019-03-31T15:13:07.593Z,11.23
2019-03-31T15:15:36.502Z,11.24
2019-03-31T15:18:05.155Z,10.99
2019-03-31T15:20:33.730Z,10.84
2019-03-31T15:23:02.393Z,10.73
2019-03-31T15:25:30.729Z,10.83
2019-03-31T15:27:59.457Z,10.77
2019-03-31T15:30:27.970Z,10.61
2019-03-31T15:32:56.207Z,10.53
2019-03-31T15:35:24.782Z,10.54
2019-03-31T15:37:53.320Z,10.34
2019-03-31T15:40:21.797Z,10.40
2019-03-31T15:42:50.322Z,10.80
2019-03-31T15:45:18.883Z,10.97
2019-03-31T15:47:47.361Z,10.88
2019-03-31T15:50:15.872Z,10.89
2019-03-31T15:52:44.838Z,10.64
2019-03-31T15:55:13.527Z,10.68
2019-03-31T15:57:42.282Z,10.69
2019-03-31T16:00:11.225Z,10.65
2019-03-31T16:02:39.881Z,10.96
2019-03-31T16:05:08.830Z,10.75
2019-03-31T16:07:37.227Z,10.72
2019-03-31T16:10:06.057Z,10.53
2019-03-31T16:12:34.013Z,10.59
2019-03-31T16:15:02.007Z,10.73
2019-03-31T16:17:30.067Z,10.63
2019-03-31T16:19:57.854Z,10.55
2019-03-31T16:22:25.742Z,10.69
2019-03-31T16:24:56.312Z,10.57
2019-03-31T16:27:24.337Z,10.44
2019-03-31T16:29:52.370Z,10.41
2019-03-31T16:32:20.263Z,10.38
2019-03-31T16:34:48.422Z,10.28
2019-03-31T16:37:16.288Z,10.19
2019-03-31T16:39:44.202Z,10.11
2019-03-31T16:42:12.099Z,10.08
2019-03-31T16:44:40.146Z,10.04
2019-03-31T16:47:08.107Z,10.05
2019-03-31T16:49:36.042Z,9.98
2019-03-31T16:52:03.870Z,10.05
2019-03-31T16:54:31.807Z,9.94
2019-03-31T16:56:59.837Z,9.95
2019-03-31T16:59:27.717Z,9.86
2019-03-31T17:01:55.642Z,9.83
2019-03-31T17:04:23.617Z,9.79
2019-03-31T17:06:51.447Z,9.62
2019-03-31T17:09:19.367Z,9.60
2019-03-31T17:11:49.707Z,9.56
2019-03-31T17:14:17.578Z,9.52
2019-03-31T17:16:45.419Z,9.50
2019-03-31T17:19:13.727Z,9.44
2019-03-31T17:21:41.666Z,9.45
2019-03-31T17:24:10.412Z,9.39
2019-03-31T17:26:38.422Z,9.33
2019-03-31T17:29:06.512Z,9.30
2019-03-31T17:31:34.982Z,9.28
2019-03-31T17:34:03.090Z,9.32
2019-03-31T17:36:31.028Z,9.21
2019-03-31T17:39:00.201Z,9.11
2019-03-31T17:41:28.267Z,9.04
2019-03-31T17:43:56.332Z,9.00
2019-03-31T17:46:24.232Z,8.89
2019-03-31T17:48:52.172Z,8.91
2019-03-31T17:51:20.307Z,8.82
2019-03-31T17:53:50.917Z,8.75
2019-03-31T17:56:18.854Z,8.71
2019-03-31T17:58:47.057Z,8.60
2019-03-31T18:01:17.822Z,8.57
2019-03-31T18:03:45.879Z,8.54
2019-03-31T18:06:13.971Z,8.37
2019-03-31T18:08:42.516Z,8.23
2019-03-31T18:11:10.883Z,8.27
2019-03-31T18:13:38.787Z,8.20
2019-03-31T18:16:06.817Z,8.14
2019-03-31T18:18:34.857Z,8.10
2019-03-31T18:21:02.867Z,7.97
2019-03-31T18:23:30.717Z,7.95
2019-03-31T18:25:58.702Z,8.00
2019-03-31T18:28:26.612Z,7.95
2019-03-31T18:30:54.567Z,7.87
2019-03-31T18:33:23.136Z,7.82
2019-03-31T18:35:51.162Z,7.76
2019-03-31T18:38:19.152Z,7.79
2019-03-31T18:40:47.178Z,7.66
2019-03-31T18:43:15.060Z,7.62
2019-03-31T18:45:43.117Z,7.54
2019-03-31T18:48:11.118Z,7.50
2019-03-31T18:50:38.979Z,7.46
2019-03-31T18:53:08.282Z,7.41
2019-03-31T18:55:45.577Z,7.44
2019-03-31T18:58:25.597Z,7.32
2019-03-31T19:01:04.327Z,7.28
2019-03-31T19:03:47.033Z,7.24
2019-03-31T19:06:37.106Z,7.20
2019-03-31T19:09:25.102Z,7.19
2019-03-31T19:12:11.528Z,7.18
2019-03-31T19:14:58.947Z,7.05
2019-03-31T19:18:04.725Z,6.97
2019-03-31T19:20:51.002Z,6.91
2019-03-31T19:23:37.909Z,6.88
2019-03-31T19:26:26.563Z,6.76
2019-03-31T19:29:26.192Z,6.84
2019-03-31T19:32:25.947Z,6.63
2019-03-31T19:35:12.327Z,6.64
2019-03-31T19:38:08.767Z,6.54
2019-03-31T19:41:03.971Z,6.49
2019-03-31T19:43:34.215Z,6.41
2019-03-31T19:46:11.443Z,6.35
2019-03-31T19:49:01.061Z,6.30
2019-03-31T19:52:06.475Z,6.25
2019-03-31T19:54:54.238Z,6.17
2019-03-31T19:57:32.021Z,6.15
2019-03-31T20:00:15.397Z,6.01
2019-03-31T20:03:11.667Z,6.13
2019-03-31T20:06:17.702Z,6.06
2019-03-31T20:08:57.403Z,5.99
2019-03-31T20:11:35.242Z,6.00
2019-03-31T20:14:25.077Z,6.05
2019-03-31T20:17:15.042Z,5.93
2019-03-31T20:19:54.717Z,5.96
2019-03-31T20:22:57.142Z,5.96
2019-03-31T20:25:44.466Z,5.92
2019-03-31T20:28:31.172Z,5.83
2019-03-31T20:31:11.200Z,5.81
2019-03-31T20:34:13.620Z,5.79
2019-03-31T20:37:09.967Z,5.76
2019-03-31T20:39:56.502Z,5.74
2019-03-31T20:42:41.452Z,5.72
2019-03-31T20:45:09.183Z,5.67
2019-03-31T20:47:37.061Z,5.68
2019-03-31T20:50:05.482Z,5.51
2019-03-31T20:52:33.362Z,5.55
2019-03-31T20:55:15.358Z,5.44
2019-03-31T20:57:30.932Z,5.42
2019-03-31T20:59:58.676Z,5.41
2019-03-31T21:02:26.576Z,5.41
2019-03-31T21:04:54.337Z,5.30
2019-03-31T21:07:22.252Z,5.23
2019-03-31T21:09:49.977Z,5.24
2019-03-31T21:12:17.842Z,5.20
2019-03-31T21:14:45.677Z,5.22
2019-03-31T21:17:13.511Z,5.20
2019-03-31T21:19:41.167Z,5.05
2019-03-31T21:22:08.771Z,4.96
2019-03-31T21:24:36.768Z,4.97
2019-03-31T21:27:04.346Z,4.96
2019-03-31T21:29:31.946Z,4.96
2019-03-31T21:32:01.816Z,4.95
2019-03-31T21:34:29.287Z,4.90
2019-03-31T21:36:56.876Z,4.87
2019-03-31T21:39:24.337Z,4.84
2019-03-31T21:41:51.891Z,4.78
2019-03-31T21:44:19.453Z,4.82
2019-03-31T21:46:46.982Z,4.73
2019-03-31T21:49:14.653Z,4.72
2019-03-31T21:51:42.147Z,4.69
2019-03-31T21:54:12.590Z,4.70
2019-03-31T21:56:39.964Z,4.63
2019-03-31T21:59:09.091Z,4.63
2019-03-31T22:01:36.951Z,4.63
2019-03-31T22:04:04.542Z,4.56
2019-03-31T22:06:32.091Z,4.53
2019-03-31T22:08:59.662Z,4.51
2019-03-31T22:11:27.282Z,4.44
2019-03-31T22:13:54.827Z,4.49
2019-03-31T22:16:22.326Z,4.48
2019-03-31T22:18:49.925Z,4.40
2019-03-31T22:21:17.532Z,4.39
2019-03-31T22:23:57.371Z,4.37
2019-03-31T22:26:14.441Z,4.35
2019-03-31T22:28:42.058Z,4.30
2019-03-31T22:31:09.555Z,4.14
2019-03-31T22:33:37.167Z,4.13
2019-03-31T22:36:23.761Z,4.09
2019-03-31T22:38:52.461Z,4.00
2019-03-31T22:41:20.042Z,3.93
2019-03-31T22:43:48.462Z,3.82
2019-03-31T22:46:15.992Z,3.67
2019-03-31T22:48:43.667Z,3.57
2019-03-31T22:51:11.253Z,3.49
2019-03-31T22:53:38.812Z,3.33
2019-03-31T22:56:07.383Z,3.36
2019-03-31T22:58:35.002Z,3.33
2019-03-31T23:01:02.728Z,3.33
2019-03-31T23:03:30.521Z,3.37
2019-03-31T23:05:58.441Z,3.62
2019-03-31T23:08:26.210Z,3.60
2019-03-31T23:10:53.701Z,3.67
2019-03-31T23:13:21.202Z,3.77
2019-03-31T23:15:48.607Z,3.40
2019-03-31T23:18:17.627Z,3.56
2019-03-31T23:20:45.077Z,3.67
2019-03-31T23:23:12.467Z,3.61
2019-03-31T23:25:39.917Z,3.49
2019-03-31T23:28:07.306Z,3.57
2019-03-31T23:30:34.726Z,3.56
2019-03-31T23:33:02.437Z,3.51
2019-03-31T23:35:29.867Z,3.60
2019-03-31T23:37:57.242Z,3.54
2019-03-31T23:40:26.606Z,3.59
2019-03-31T23:42:53.982Z,3.53
2019-03-31T23:45:21.407Z,3.54
2019-03-31T23:47:48.794Z,3.51
2019-03-31T23:50:16.247Z,3.16
2019-03-31T23:52:43.626Z,3.11
2019-03-31T23:55:11.157Z,3.07
2019-03-31T23:57:39.086Z,3.14
